Time;durP1;ratioP1;P1;durP2;ratioP2;P2;SDS_P1;SDS_P2;PMS_P1;PMS_P2;Temp;Humidity;BMP_temperature;BMP_pressure;BME280_temperature;BME280_humidity;BME280_pressure;Samples;Min_cycle;Max_cycle;Signal;HPM_P1;HPM_P2
2022/02/12 00:00:29;;;;;;;2.57;1.17;;;0.70;99.90;0.20;102166.00;;;;4970420;28;88813;-68
2022/02/12 00:02:55;;;;;;;1.10;1.00;;;0.60;99.90;0.20;102163.00;;;;4976936;28;96198;-68
2022/02/12 00:05:25;;;;;;;1.67;1.57;;;0.70;99.90;0.10;102167.00;;;;4963252;28;108058;-69
2022/02/12 00:07:53;;;;;;;1.97;1.23;;;0.50;99.90;0.10;102177.00;;;;4956917;28;88102;-68
2022/02/12 00:10:19;;;;;;;5.13;0.93;;;0.90;99.90;0.00;102183.00;;;;4957404;28;87118;-68
2022/02/12 00:12:45;;;;;;;7.27;1.23;;;0.40;99.90;0.00;102189.00;;;;4957237;28;87883;-68
2022/02/12 00:15:11;;;;;;;2.10;1.43;;;0.40;99.90;-0.10;102177.00;;;;4970746;28;106732;-68
2022/02/12 00:17:37;;;;;;;3.00;0.97;;;0.30;99.90;-0.10;102199.00;;;;4959415;28;88691;-68
2022/02/12 00:20:05;;;;;;;1.53;1.00;;;0.20;99.90;-0.20;102189.00;;;;4956899;28;87695;-68
2022/02/12 00:22:31;;;;;;;1.90;0.97;;;0.20;99.90;-0.20;102199.00;;;;4956341;28;91722;-68
2022/02/12 00:24:57;;;;;;;2.03;1.47;;;0.10;99.90;-0.30;102203.00;;;;4968498;28;88880;-68
2022/02/12 00:27:22;;;;;;;4.27;1.50;;;0.20;99.90;-0.30;102199.00;;;;4975317;28;117489;-68
2022/02/12 00:29:48;;;;;;;2.00;1.10;;;0.10;99.90;-0.30;102210.00;;;;4976310;28;87908;-68
2022/02/12 00:32:14;;;;;;;0.80;0.80;;;0.00;99.90;-0.40;102205.00;;;;4975241;28;109859;-68
2022/02/12 00:34:40;;;;;;;2.93;1.43;;;0.00;99.90;-0.40;102224.00;;;;4976052;28;101288;-68
2022/02/12 00:37:07;;;;;;;1.80;1.57;;;-0.10;99.90;-0.50;102224.00;;;;4957168;28;116202;-69
2022/02/12 00:39:33;;;;;;;1.33;1.20;;;-0.10;99.90;-0.50;102232.00;;;;4971663;28;88205;-69
2022/02/12 00:41:59;;;;;;;4.53;1.17;;;-0.20;99.90;-0.60;102228.00;;;;4970677;28;89043;-69
2022/02/12 00:44:24;;;;;;;1.07;0.97;;;0.60;99.90;-0.60;102233.00;;;;4955950;28;90164;-68
2022/02/12 00:46:52;;;;;;;1.50;1.23;;;-0.10;99.90;-0.70;102239.00;;;;4956516;28;90535;-69
2022/02/12 00:49:17;;;;;;;2.20;1.37;;;-0.30;99.90;-0.70;102238.00;;;;4956518;28;87947;-69
2022/02/12 00:51:43;;;;;;;1.40;1.30;;;-0.30;99.90;-0.70;102239.00;;;;4961295;28;92719;-69
2022/02/12 00:54:09;;;;;;;1.73;1.40;;;-0.30;99.90;-0.80;102238.00;;;;4972021;28;118060;-69
2022/02/12 00:56:34;;;;;;;2.10;1.10;;;-0.50;99.90;-0.80;102238.00;;;;4954844;28;117773;-69
2022/02/12 00:59:00;;;;;;;1.43;0.97;;;-0.30;99.90;-0.80;102241.00;;;;4956692;28;87026;-69
2022/02/12 01:01:26;;;;;;;2.03;1.67;;;-0.40;99.90;-0.90;102233.00;;;;4955126;28;109608;-70
2022/02/12 01:03:53;;;;;;;2.70;1.37;;;-0.50;99.90;-0.90;102229.00;;;;4955533;28;95625;-72
2022/02/12 01:06:19;;;;;;;2.50;1.47;;;-0.60;99.90;-0.90;102243.00;;;;4955548;28;88836;-72
2022/02/12 01:08:46;;;;;;;1.23;1.13;;;-0.50;99.90;-0.90;102231.00;;;;4956308;28;87909;-71
2022/02/12 01:11:13;;;;;;;2.30;1.13;;;-0.60;99.90;-1.00;102236.00;;;;4955998;28;87889;-70
2022/02/12 01:13:40;;;;;;;3.17;1.60;;;-0.60;99.90;-1.00;102234.00;;;;4955780;28;88917;-70
2022/02/12 01:16:06;;;;;;;2.33;1.17;;;-0.70;99.90;-1.00;102234.00;;;;4955029;28;87990;-70
2022/02/12 01:18:32;;;;;;;1.50;0.80;;;-0.70;99.90;-1.00;102246.00;;;;4966085;28;87828;-70
2022/02/12 01:20:58;;;;;;;1.27;1.00;;;-0.70;99.90;-1.10;102235.00;;;;4974283;28;102608;-71
2022/02/12 01:23:23;;;;;;;1.90;1.10;;;-0.70;99.90;-1.10;102245.00;;;;4974923;28;117262;-70
2022/02/12 01:25:50;;;;;;;3.13;1.53;;;-0.80;99.90;-1.10;102256.00;;;;4975436;28;87677;-70
2022/02/12 01:28:20;;;;;;;2.47;1.70;;;-0.70;99.90;-1.20;102241.00;;;;4975892;28;89126;-70
2022/02/12 01:30:45;;;;;;;7.73;1.43;;;-0.70;99.90;-1.20;102247.00;;;;4974874;28;88886;-70
2022/02/12 01:33:12;;;;;;;6.67;0.83;;;-0.80;99.90;-1.20;102250.00;;;;4975228;28;104516;-70
2022/02/12 01:35:38;;;;;;;0.97;0.97;;;0.10;99.90;-1.20;102245.00;;;;4969571;28;88991;-69
2022/02/12 01:38:04;;;;;;;1.23;1.00;;;0.20;99.90;-1.20;102252.00;;;;4959170;28;87723;-70
2022/02/12 01:40:31;;;;;;;3.57;1.33;;;-0.80;99.90;-1.20;102263.00;;;;4958564;28;109915;-70
2022/02/12 01:43:01;;;;;;;2.10;1.33;;;-0.80;99.90;-1.20;102262.00;;;;4959586;28;88912;-70
2022/02/12 01:45:26;;;;;;;2.03;1.30;;;-0.90;99.90;-1.20;102262.00;;;;4969021;28;88348;-71
2022/02/12 01:47:52;;;;;;;2.80;1.33;;;-0.80;99.90;-1.30;102257.00;;;;4958918;28;98712;-71
2022/02/12 01:50:18;;;;;;;1.83;1.37;;;-0.80;99.90;-1.30;102260.00;;;;4959437;28;97870;-72
2022/02/12 01:52:44;;;;;;;3.27;1.57;;;-1.00;99.90;-1.30;102269.00;;;;4958493;28;100297;-71
2022/02/12 01:55:11;;;;;;;1.90;1.13;;;-0.90;99.90;-1.30;102262.00;;;;4972913;28;89821;-72
2022/02/12 01:57:36;;;;;;;1.60;1.40;;;-1.00;99.90;-1.30;102264.00;;;;4960314;28;87845;-72
2022/02/12 02:00:09;;;;;;;1.80;1.37;;;-0.90;99.90;-1.30;102256.00;;;;4964088;28;107551;-72
2022/02/12 02:02:37;;;;;;;4.50;1.40;;;-0.90;99.90;-1.40;102256.00;;;;4976280;28;90055;-72
2022/02/12 02:05:14;;;;;;;0.73;0.73;;;-1.00;99.90;-1.40;102255.00;;;;4976393;28;87851;-72
2022/02/12 02:07:42;;;;;;;1.50;1.10;;;-1.00;99.90;-1.40;102263.00;;;;4978628;28;87827;-72
2022/02/12 02:10:09;;;;;;;1.03;0.97;;;-1.00;99.90;-1.40;102261.00;;;;4978623;28;87702;-71
2022/02/12 02:12:35;;;;;;;1.40;0.67;;;-1.10;99.90;-1.40;102268.00;;;;4962204;28;87248;-72
2022/02/12 02:15:02;;;;;;;6.03;1.73;;;-1.10;99.90;-1.40;102268.00;;;;4956341;28;105907;-70
2022/02/12 02:17:28;;;;;;;1.63;1.20;;;-1.10;99.90;-1.50;102274.00;;;;4958796;28;87702;-70
2022/02/12 02:19:54;;;;;;;6.57;1.90;;;-1.10;99.90;-1.50;102265.00;;;;4972353;28;108652;-70
2022/02/12 02:22:41;;;;;;;1.50;1.40;;;-1.10;99.90;-1.60;102264.00;;;;4959658;28;89217;-70
2022/02/12 02:25:07;;;;;;;1.83;1.37;;;-0.80;99.90;-1.50;102272.00;;;;4958638;28;87833;-72
2022/02/12 02:27:33;;;;;;;1.17;0.93;;;-1.10;99.90;-1.60;102272.00;;;;4959284;28;97386;-71
2022/02/12 02:29:59;;;;;;;1.07;0.87;;;-1.20;99.90;-1.50;102264.00;;;;4958053;28;107601;-71
2022/02/12 02:32:24;;;;;;;3.43;1.73;;;-1.20;99.90;-1.50;102269.00;;;;4958950;28;88976;-71
2022/02/12 02:34:53;;;;;;;1.40;1.20;;;-1.20;99.90;-1.50;102265.00;;;;4961967;28;117509;-71
2022/02/12 02:37:21;;;;;;;0.90;0.90;;;-1.10;99.90;-1.50;102273.00;;;;4960443;28;87086;-71
2022/02/12 02:39:47;;;;;;;2.30;1.53;;;-1.00;99.90;-1.50;102277.00;;;;4958314;28;87731;-70
2022/02/12 02:42:13;;;;;;;1.40;1.30;;;-0.30;99.90;-1.50;102268.00;;;;4957589;28;105365;-71
2022/02/12 02:44:39;;;;;;;1.73;1.57;;;-1.00;99.90;-1.50;102263.00;;;;4956949;28;115452;-71
2022/02/12 02:49:51;;;;;;;3.20;1.23;;;-1.10;99.90;-1.50;102267.00;;;;4958672;28;87893;-70
2022/02/12 02:55:59;;;;;;;1.30;1.10;;;-1.20;99.90;-1.60;102274.00;;;;4962684;28;87805;-70
2022/02/12 02:57:49;;;;;;;1.23;1.10;;;-1.20;99.90;-1.60;102270.00;;;;4957919;28;87901;-70
2022/02/12 03:00:16;;;;;;;2.57;1.30;;;-1.20;99.90;-1.60;102267.00;;;;4972758;28;94016;-70
2022/02/12 03:02:41;;;;;;;2.13;1.30;;;-1.20;99.90;-1.60;102280.00;;;;4958216;28;95467;-70
2022/02/12 03:05:07;;;;;;;2.27;1.23;;;-1.20;99.90;-1.70;102274.00;;;;4957490;28;87726;-69
2022/02/12 03:07:33;;;;;;;3.03;1.63;;;-1.30;99.90;-1.70;102279.00;;;;4956880;28;109534;-69
2022/02/12 03:09:59;;;;;;;5.43;1.50;;;-1.30;99.90;-1.70;102276.00;;;;4957925;28;88553;-69
2022/02/12 03:12:24;;;;;;;2.17;1.40;;;-1.20;99.90;-1.70;102277.00;;;;4962212;28;118139;-69
2022/02/12 03:14:50;;;;;;;2.13;0.97;;;-1.40;99.90;-1.70;102281.00;;;;4956532;28;116279;-69
2022/02/12 03:17:16;;;;;;;4.30;2.03;;;-1.30;99.90;-1.80;102281.00;;;;4957167;28;110528;-69
2022/02/12 03:19:41;;;;;;;1.10;1.00;;;-1.40;99.90;-1.80;102269.00;;;;4957455;28;108998;-69
2022/02/12 03:22:07;;;;;;;5.43;2.13;;;-1.30;99.90;-1.80;102272.00;;;;4958441;28;116319;-69
2022/02/12 03:24:33;;;;;;;1.67;1.50;;;-0.90;99.90;-1.80;102288.00;;;;4972532;28;91670;-69
2022/02/12 03:26:59;;;;;;;0.93;0.80;;;-1.40;99.90;-1.60;102283.00;;;;4957168;28;110242;-69
2022/02/12 03:29:25;;;;;;;1.80;1.17;;;-1.30;99.90;-1.50;102270.00;;;;4957832;28;87724;-68
2022/02/12 03:31:51;;;;;;;3.87;1.60;;;-1.20;99.90;-1.50;102273.00;;;;4957431;28;88808;-69
2022/02/12 03:34:16;;;;;;;2.97;1.53;;;-1.10;99.90;-1.50;102274.00;;;;4957553;28;88994;-69
2022/02/12 03:36:42;;;;;;;1.23;1.13;;;-1.20;99.90;-1.50;102265.00;;;;4956764;28;108922;-69
2022/02/12 03:39:08;;;;;;;1.50;1.20;;;-1.20;99.90;-1.60;102275.00;;;;4959626;28;108203;-68
2022/02/12 03:41:33;;;;;;;1.07;0.93;;;-1.20;99.90;-1.60;102273.00;;;;4976147;28;117366;-68
2022/02/12 03:43:59;;;;;;;14.80;3.50;;;-1.20;99.90;-1.70;102269.00;;;;4985093;28;117532;-68
2022/02/12 03:46:25;;;;;;;6.37;3.87;;;-1.30;99.90;-1.70;102275.00;;;;4976410;28;111373;-68
2022/02/12 03:48:50;;;;;;;19.37;10.07;;;-1.40;99.90;-1.70;102268.00;;;;4975840;28;108714;-68
2022/02/12 03:51:18;;;;;;;17.63;12.03;;;-1.40;99.90;-1.80;102275.00;;;;4957352;28;87558;-67
2022/02/12 03:53:46;;;;;;;16.93;11.80;;;-1.40;99.90;-1.80;102274.00;;;;4974695;28;88002;-68
2022/02/12 03:56:14;;;;;;;9.93;7.03;;;-1.40;99.90;-1.90;102270.00;;;;4976219;28;87897;-69
2022/02/12 03:58:39;;;;;;;6.60;4.00;;;-1.40;99.90;-1.90;102265.00;;;;4975728;28;88705;-69
2022/02/12 04:01:05;;;;;;;4.23;2.20;;;-1.50;99.90;-1.90;102275.00;;;;4975050;28;117268;-69
2022/02/12 04:03:31;;;;;;;2.90;1.80;;;-1.60;99.90;-2.00;102271.00;;;;4975913;28;117784;-68
2022/02/12 04:05:56;;;;;;;2.00;1.07;;;-1.60;99.90;-2.00;102258.00;;;;4975080;28;87551;-68
2022/02/12 04:08:23;;;;;;;2.87;1.67;;;-1.60;99.90;-2.00;102251.00;;;;4976266;28;108067;-69
2022/02/12 04:10:49;;;;;;;2.67;1.23;;;-1.60;99.90;-2.00;102253.00;;;;4974908;28;90689;-68
2022/02/12 04:13:17;;;;;;;3.20;2.10;;;-1.60;99.90;-2.10;102265.00;;;;4957680;28;91620;-68
2022/02/12 04:15:43;;;;;;;1.50;1.20;;;-1.60;99.90;-2.10;102254.00;;;;4957413;28;87147;-68
2022/02/12 04:18:13;;;;;;;1.73;1.13;;;-1.60;99.90;-2.10;102263.00;;;;4970442;28;95516;-68
2022/02/12 04:20:39;;;;;;;2.97;1.23;;;-1.70;99.90;-2.20;102259.00;;;;4956936;28;88617;-68
2022/02/12 04:23:06;;;;;;;1.90;1.40;;;-1.80;99.90;-2.20;102267.00;;;;4955776;28;117401;-68
2022/02/12 04:25:32;;;;;;;1.83;1.63;;;-1.80;99.90;-2.30;102267.00;;;;4956355;28;97455;-68
2022/02/12 04:28:06;;;;;;;2.50;1.33;;;-1.80;99.90;-2.30;102269.00;;;;4956906;28;87905;-68
2022/02/12 04:30:31;;;;;;;1.80;1.00;;;-1.90;99.90;-2.30;102266.00;;;;4956559;28;88134;-68
2022/02/12 04:32:58;;;;;;;3.70;1.63;;;-1.90;99.90;-2.30;102268.00;;;;4957378;28;87783;-68
2022/02/12 04:35:24;;;;;;;1.70;1.27;;;-1.50;99.90;-2.30;102268.00;;;;4958562;28;87959;-68
2022/02/12 04:37:49;;;;;;;1.47;1.30;;;-1.90;99.90;-2.30;102271.00;;;;4958766;28;87618;-67
2022/02/12 04:40:15;;;;;;;1.60;1.17;;;-1.90;99.90;-2.30;102259.00;;;;4976113;28;99458;-66
2022/02/12 04:42:41;;;;;;;2.37;1.93;;;-1.90;99.90;-2.30;102267.00;;;;4975191;28;116821;-67
2022/02/12 04:45:07;;;;;;;1.87;1.70;;;-2.00;99.90;-2.40;102274.00;;;;4967386;28;88055;-67
2022/02/12 04:47:33;;;;;;;2.03;1.80;;;-1.90;99.90;-2.40;102267.00;;;;4955693;28;88833;-66
2022/02/12 04:49:59;;;;;;;5.33;1.73;;;-1.90;99.90;-2.40;102273.00;;;;4956478;28;105708;-66
2022/02/12 04:52:24;;;;;;;1.80;1.67;;;-1.90;99.90;-2.40;102267.00;;;;4956005;28;107057;-66
2022/02/12 04:54:50;;;;;;;6.77;1.90;;;-1.50;99.90;-2.40;102259.00;;;;4955217;28;108938;-66
2022/02/12 04:57:16;;;;;;;1.83;1.53;;;-2.00;99.90;-2.40;102264.00;;;;4970156;28;107679;-68
2022/02/12 04:59:42;;;;;;;1.50;1.40;;;-2.00;99.90;-2.40;102264.00;;;;4956084;28;100175;-66
2022/02/12 05:02:08;;;;;;;5.30;2.57;;;-2.00;99.90;-2.40;102248.00;;;;4954706;28;117742;-67
2022/02/12 05:04:34;;;;;;;2.00;1.70;;;-1.70;99.90;-2.40;102257.00;;;;4970624;28;110824;-66
2022/02/12 05:07:00;;;;;;;1.37;1.27;;;-2.00;99.90;-2.40;102251.00;;;;4956284;28;87679;-66
2022/02/12 05:09:26;;;;;;;1.60;1.40;;;-2.00;99.90;-2.40;102252.00;;;;4954864;28;118157;-67
2022/02/12 05:11:52;;;;;;;3.40;2.20;;;-2.00;99.90;-2.50;102246.00;;;;4955833;28;88735;-67
2022/02/12 05:14:19;;;;;;;1.60;1.50;;;-2.10;99.90;-2.50;102245.00;;;;4973641;28;87605;-67
2022/02/12 05:16:45;;;;;;;2.10;1.90;;;-2.00;99.90;-2.50;102242.00;;;;4973315;28;87872;-67
2022/02/12 05:19:11;;;;;;;3.47;2.10;;;-3.50;99.90;-2.50;102233.00;;;;4972418;28;102270;-67
2022/02/12 05:21:37;;;;;;;3.03;1.97;;;-2.10;99.90;-2.50;102232.00;;;;4955609;28;88520;-67
2022/02/12 05:24:04;;;;;;;1.50;1.40;;;-2.20;99.90;-2.50;102233.00;;;;4954974;28;110300;-68
2022/02/12 05:26:30;;;;;;;2.73;1.97;;;-2.10;99.90;-2.60;102230.00;;;;4957291;28;87656;-67
2022/02/12 05:28:56;;;;;;;4.73;1.93;;;-2.30;99.90;-2.60;102235.00;;;;4957413;28;87248;-66
2022/02/12 05:31:22;;;;;;;2.47;2.20;;;-2.20;99.90;-2.60;102241.00;;;;4974931;28;116776;-66
2022/02/12 05:33:48;;;;;;;18.90;2.63;;;-2.10;99.90;-2.60;102249.00;;;;4975276;28;111150;-65
2022/02/12 05:36:14;;;;;;;3.53;2.47;;;-2.20;99.90;-2.60;102240.00;;;;4963182;28;109242;-65
2022/02/12 05:38:41;;;;;;;2.37;1.70;;;-2.20;99.90;-2.60;102233.00;;;;4955766;28;88646;-66
2022/02/12 05:41:13;;;;;;;2.37;2.17;;;-2.20;99.90;-2.60;102226.00;;;;4966378;28;117152;-66
2022/02/12 05:43:39;;;;;;;3.87;1.80;;;-2.20;99.90;-2.60;102232.00;;;;4975545;28;89515;-66
2022/02/12 05:46:06;;;;;;;2.07;1.87;;;-2.20;99.90;-2.60;102235.00;;;;4974881;28;87736;-66
2022/02/12 05:48:33;;;;;;;3.60;2.40;;;-2.20;99.90;-2.70;102224.00;;;;4974142;28;88744;-66
2022/02/12 05:50:59;;;;;;;2.70;1.80;;;-2.20;99.90;-2.70;102220.00;;;;4975604;28;88447;-67
2022/02/12 05:53:25;;;;;;;1.87;1.57;;;-2.30;99.90;-2.80;102236.00;;;;4967090;28;86934;-67
2022/02/12 05:55:51;;;;;;;2.47;2.10;;;-2.30;99.90;-2.80;102252.00;;;;4955023;28;108483;-66
2022/02/12 05:58:17;;;;;;;4.17;1.37;;;-2.30;99.90;-2.80;102246.00;;;;4956064;28;103997;-66
2022/02/12 06:00:43;;;;;;;1.50;1.40;;;-2.30;99.90;-2.80;102241.00;;;;4954184;28;102788;-67
2022/02/12 06:03:09;;;;;;;0.97;0.60;;;-2.40;99.90;-2.80;102246.00;;;;4969160;28;97174;-67
2022/02/12 06:05:35;;;;;;;3.50;2.13;;;-2.40;99.90;-2.80;102255.00;;;;4955673;28;108015;-66
2022/02/12 06:08:04;;;;;;;7.20;1.57;;;-2.40;99.90;-2.80;102254.00;;;;4957889;28;89299;-66
2022/02/12 06:10:33;;;;;;;4.43;2.40;;;-2.30;99.90;-2.80;102257.00;;;;4955777;28;87991;-66
2022/02/12 06:12:59;;;;;;;5.57;2.53;;;-2.40;99.90;-2.90;102261.00;;;;4954213;28;110806;-66
2022/02/12 06:15:26;;;;;;;2.60;1.83;;;-2.40;99.90;-2.90;102273.00;;;;4956616;28;87759;-67
2022/02/12 06:17:51;;;;;;;1.80;1.70;;;-2.40;99.90;-2.90;102263.00;;;;4955453;28;89315;-67
2022/02/12 06:20:17;;;;;;;3.77;2.20;;;-2.40;99.90;-2.90;102264.00;;;;4955455;28;88273;-66
2022/02/12 06:22:43;;;;;;;2.63;2.20;;;-2.50;99.90;-3.00;102267.00;;;;4956210;28;97495;-66
2022/02/12 06:25:09;;;;;;;3.90;1.87;;;-0.80;99.90;-3.00;102271.00;;;;4957345;28;102764;-66
2022/02/12 06:27:35;;;;;;;2.93;2.10;;;-2.60;99.90;-3.00;102277.00;;;;4957831;28;95171;-66
2022/02/12 06:30:03;;;;;;;3.03;2.37;;;-1.60;99.90;-3.00;102268.00;;;;4968313;28;93585;-67
2022/02/12 06:32:29;;;;;;;3.93;2.87;;;-2.60;99.90;-2.90;102280.00;;;;4966759;28;87775;-66
2022/02/12 06:35:01;;;;;;;2.83;2.63;;;-2.50;99.90;-2.90;102280.00;;;;4958185;28;108801;-66
2022/02/12 06:37:28;;;;;;;4.20;2.23;;;-2.50;99.90;-2.90;102274.00;;;;4977339;28;87667;-66
2022/02/12 06:39:54;;;;;;;4.70;2.43;;;-2.50;99.90;-2.90;102277.00;;;;4977494;28;97481;-66
2022/02/12 06:42:20;;;;;;;2.63;2.17;;;-2.40;99.90;-2.90;102283.00;;;;4976342;28;96916;-66
2022/02/12 06:44:47;;;;;;;4.87;2.50;;;-2.40;99.90;-2.80;102295.00;;;;4976925;28;108710;-66
2022/02/12 06:47:12;;;;;;;3.17;2.50;;;-1.60;99.90;-2.80;102289.00;;;;4973555;28;116983;-66
2022/02/12 06:49:38;;;;;;;6.77;2.77;;;-2.40;99.90;-2.80;102278.00;;;;4965646;28;116663;-66
2022/02/12 06:52:05;;;;;;;5.13;3.17;;;-2.30;99.90;-2.80;102288.00;;;;4975538;28;87675;-66
2022/02/12 06:54:31;;;;;;;4.00;3.17;;;-2.30;99.90;-2.70;102288.00;;;;4970787;28;88095;-66
2022/02/12 06:56:57;;;;;;;4.60;2.97;;;-2.30;99.90;-2.70;102290.00;;;;4974033;28;102918;-66
2022/02/12 06:59:23;;;;;;;3.53;3.23;;;-2.30;99.90;-2.70;102280.00;;;;4974093;28;97514;-66
2022/02/12 07:01:49;;;;;;;4.00;3.20;;;-2.20;99.90;-2.60;102291.00;;;;4975213;28;87756;-66
2022/02/12 07:04:15;;;;;;;6.00;3.30;;;-2.20;99.90;-2.60;102277.00;;;;4970390;28;107306;-66
2022/02/12 07:06:41;;;;;;;4.57;3.57;;;-2.10;99.90;-2.50;102293.00;;;;4968109;28;88142;-66
2022/02/12 07:09:07;;;;;;;4.70;3.63;;;-2.00;99.90;-2.30;102302.00;;;;4970920;28;116557;-67
2022/02/12 07:11:34;;;;;;;7.80;3.93;;;-1.90;99.90;-2.00;102291.00;;;;4973062;28;110661;-67
2022/02/12 07:14:01;;;;;;;8.00;4.70;;;-1.80;99.90;-1.80;102292.00;;;;4973385;28;88764;-67
2022/02/12 07:16:27;;;;;;;5.27;3.50;;;-0.40;99.90;-1.60;102287.00;;;;4974360;28;88970;-67
2022/02/12 07:18:52;;;;;;;8.77;4.20;;;-1.40;99.90;-1.40;102301.00;;;;4965985;28;88247;-67
2022/02/12 07:21:18;;;;;;;6.43;5.03;;;-1.00;99.90;-1.20;102302.00;;;;4974280;28;109834;-66
2022/02/12 07:23:44;;;;;;;7.57;5.37;;;-0.90;99.90;-1.00;102300.00;;;;4974571;28;87847;-66
2022/02/12 07:26:10;;;;;;;18.70;12.57;;;-0.60;99.90;-0.80;102309.00;;;;4972954;28;117191;-67
2022/02/12 07:28:40;;;;;;;11.10;7.07;;;-0.40;99.90;-0.70;102306.00;;;;4973828;28;88897;-67
2022/02/12 07:31:07;;;;;;;14.83;8.10;;;-0.40;99.90;-0.50;102317.00;;;;4970033;28;87534;-67
2022/02/12 07:33:33;;;;;;;18.60;10.63;;;-0.20;99.90;-0.40;102301.00;;;;4970181;28;87771;-66
2022/02/12 07:35:59;;;;;;;12.47;8.33;;;-0.10;99.90;-0.20;102309.00;;;;4973210;28;88083;-67
2022/02/12 07:38:24;;;;;;;18.17;7.73;;;0.10;99.90;-0.10;102316.00;;;;4973281;28;117590;-67
2022/02/12 07:40:50;;;;;;;16.07;7.63;;;0.20;99.90;0.10;102310.00;;;;4972302;28;109906;-67
2022/02/12 07:43:16;;;;;;;9.23;7.53;;;0.40;99.90;0.30;102323.00;;;;4972988;28;109436;-66
2022/02/12 07:45:41;;;;;;;19.50;10.37;;;1.40;99.90;0.50;102315.00;;;;4973280;28;88383;-66
2022/02/12 07:48:07;;;;;;;13.13;8.53;;;1.40;99.90;0.70;102313.00;;;;4968469;28;117498;-66
2022/02/12 07:50:33;;;;;;;16.30;8.33;;;1.00;99.90;0.80;102303.00;;;;4975104;28;89109;-66
2022/02/12 07:52:59;;;;;;;12.33;7.97;;;1.20;99.90;1.00;102309.00;;;;4974227;28;87884;-66
2022/02/12 07:55:24;;;;;;;16.80;9.70;;;1.30;99.90;1.30;102313.00;;;;4972304;28;116877;-67
2022/02/12 07:57:50;;;;;;;17.63;10.40;;;1.50;99.90;1.50;102312.00;;;;4985483;28;116525;-65
2022/02/12 08:00:17;;;;;;;11.13;7.80;;;1.80;99.90;1.70;102311.00;;;;4973433;28;87756;-65
2022/02/12 08:02:43;;;;;;;17.40;10.43;;;1.90;99.90;1.80;102309.00;;;;4973057;28;89095;-66
2022/02/12 08:05:09;;;;;;;11.50;7.60;;;2.20;99.90;2.00;102325.00;;;;4971262;28;95893;-67
2022/02/12 08:07:38;;;;;;;13.93;8.17;;;2.30;99.90;2.10;102313.00;;;;4972169;28;88194;-67
2022/02/12 08:12:56;;;;;;;13.60;10.20;;;2.60;99.90;2.30;102324.00;;;;4983757;28;87880;-67
2022/02/12 08:15:22;;;;;;;17.23;11.70;;;2.60;99.90;2.40;102321.00;;;;4972673;28;101850;-67
2022/02/12 08:17:48;;;;;;;18.87;12.60;;;2.70;99.90;2.60;102322.00;;;;4970061;28;91150;-66
2022/02/12 08:20:14;;;;;;;33.00;17.30;;;2.90;99.90;2.80;102323.00;;;;4971817;28;113717;-65
2022/02/12 08:22:40;;;;;;;27.13;16.87;;;3.10;99.90;2.90;102327.00;;;;4972502;28;87925;-66
2022/02/12 08:25:06;;;;;;;51.90;24.07;;;3.30;99.90;3.10;102329.00;;;;4965498;28;118494;-67
2022/02/12 08:27:33;;;;;;;35.90;20.20;;;3.50;99.90;3.40;102331.00;;;;4972710;28;89273;-68
2022/02/12 08:29:58;;;;;;;21.20;10.47;;;3.60;99.90;3.60;102327.00;;;;4970770;28;88059;-67
2022/02/12 08:32:24;;;;;;;17.07;8.90;;;3.80;99.90;3.70;102335.00;;;;4972297;28;96788;-67
2022/02/12 08:34:51;;;;;;;18.73;9.30;;;3.90;99.90;3.90;102322.00;;;;4963293;28;88296;-67
2022/02/12 08:37:17;;;;;;;20.03;11.07;;;4.10;99.90;4.10;102333.00;;;;4972085;28;111292;-67
2022/02/12 08:39:44;;;;;;;25.80;9.80;;;4.30;99.90;4.30;102332.00;;;;4969133;28;92756;-70
2022/02/12 08:42:09;;;;;;;11.23;8.10;;;4.50;99.90;4.60;102330.00;;;;4970025;28;87963;-70
2022/02/12 08:44:37;;;;;;;16.13;9.07;;;4.80;99.90;4.80;102331.00;;;;4971307;28;116991;-69
2022/02/12 08:47:04;;;;;;;13.43;7.47;;;6.00;99.90;5.00;102343.00;;;;4965778;28;88026;-68
2022/02/12 08:49:30;;;;;;;22.70;8.40;;;5.20;99.90;5.10;102338.00;;;;4972783;28;96957;-66
2022/02/12 08:51:56;;;;;;;12.20;6.23;;;5.20;99.90;5.10;102329.00;;;;4987865;28;88855;-67
2022/02/12 08:54:22;;;;;;;27.23;7.87;;;5.30;99.90;5.10;102332.00;;;;4966658;28;117572;-67
2022/02/12 08:56:48;;;;;;;12.47;6.23;;;5.40;99.90;5.10;102332.00;;;;4987540;28;88128;-66
2022/02/12 08:59:14;;;;;;;10.60;6.17;;;5.40;99.90;5.20;102329.00;;;;4972141;28;87649;-67
2022/02/12 09:01:41;;;;;;;8.63;5.63;;;5.50;99.90;5.40;102339.00;;;;4972758;28;108791;-66
2022/02/12 09:04:10;;;;;;;12.23;7.07;;;5.60;99.90;5.50;102344.00;;;;4970800;28;101646;-67
2022/02/12 09:06:36;;;;;;;17.10;6.57;;;5.70;99.90;5.60;102342.00;;;;4966107;28;104104;-67
2022/02/12 09:09:03;;;;;;;14.90;5.87;;;5.80;99.90;5.80;102358.00;;;;4972431;28;87082;-66
2022/02/12 09:11:30;;;;;;;7.93;5.33;;;6.00;99.90;5.90;102346.00;;;;4966909;28;96797;-66
2022/02/12 09:13:57;;;;;;;7.47;4.70;;;6.10;99.90;6.00;102341.00;;;;4964962;28;106432;-66
2022/02/12 09:16:25;;;;;;;11.07;5.37;;;6.20;99.90;6.20;102334.00;;;;4971940;28;96939;-67
2022/02/12 09:18:54;;;;;;;12.57;5.43;;;6.30;99.90;6.30;102332.00;;;;4971748;28;87661;-67
2022/02/12 09:21:21;;;;;;;6.60;4.63;;;6.40;99.90;6.30;102330.00;;;;4967961;28;88169;-68
2022/02/12 09:23:48;;;;;;;6.70;3.57;;;6.50;99.90;6.40;102338.00;;;;4971527;28;88128;-70
2022/02/12 09:26:14;;;;;;;4.93;4.07;;;6.50;99.90;6.40;102337.00;;;;4969908;28;88005;-70
2022/02/12 09:28:39;;;;;;;5.80;3.23;;;6.60;99.90;6.40;102332.00;;;;4981090;28;110155;-68
2022/02/12 09:31:05;;;;;;;6.07;2.80;;;6.60;99.90;6.30;102325.00;;;;4962249;28;108338;-68
2022/02/12 09:33:31;;;;;;;4.23;2.40;;;6.50;99.90;6.20;102324.00;;;;4967444;28;93401;-68
2022/02/12 09:35:57;;;;;;;4.90;2.97;;;6.40;99.90;6.30;102331.00;;;;4966114;28;87983;-68
2022/02/12 09:38:24;;;;;;;10.73;2.63;;;6.40;99.90;6.40;102334.00;;;;4971373;28;87875;-68
2022/02/12 09:40:53;;;;;;;8.90;3.33;;;6.50;99.90;6.50;102331.00;;;;4971474;28;88814;-68
2022/02/12 09:43:22;;;;;;;5.37;2.37;;;6.60;99.90;6.60;102336.00;;;;4970255;28;91358;-69
2022/02/12 09:46:17;;;;;;;7.67;2.50;;;6.70;99.90;6.50;102332.00;;;;4972510;28;88624;-68
2022/02/12 09:48:45;;;;;;;5.43;2.47;;;6.70;99.90;6.60;102332.00;;;;4974786;28;98998;-69
2022/02/12 09:51:12;;;;;;;4.37;2.47;;;6.80;99.90;6.80;102324.00;;;;4971618;28;87766;-69
2022/02/12 09:53:38;;;;;;;2.07;1.50;;;6.90;99.90;6.90;102335.00;;;;4970816;28;91617;-68
2022/02/12 09:56:04;;;;;;;2.77;1.97;;;7.00;99.90;7.10;102330.00;;;;4967175;28;117453;-71
2022/02/12 09:58:30;;;;;;;5.53;2.37;;;7.20;99.90;7.20;102328.00;;;;4975467;28;96495;-69
2022/02/12 10:00:55;;;;;;;4.47;2.23;;;7.30;99.90;7.30;102331.00;;;;4988772;28;108963;-66
2022/02/12 10:03:21;;;;;;;5.03;2.10;;;7.40;99.90;7.40;102327.00;;;;4973879;28;117512;-68
2022/02/12 10:05:53;;;;;;;7.13;2.53;;;7.50;99.90;7.50;102320.00;;;;4964907;28;117955;-69
2022/02/12 10:08:21;;;;;;;5.23;1.83;;;7.60;99.90;7.60;102312.00;;;;4971090;28;88631;-70
2022/02/12 10:10:51;;;;;;;6.13;2.47;;;7.60;99.90;7.70;102306.00;;;;4975503;28;87733;-71
2022/02/12 10:13:30;;;;;;;6.27;1.77;;;7.70;99.90;7.90;102305.00;;;;4987320;28;88600;-73
2022/02/12 10:15:58;;;;;;;6.00;1.70;;;8.00;99.90;8.00;102313.00;;;;4958669;28;87971;-71
2022/02/12 10:18:26;;;;;;;4.77;1.50;;;8.10;99.90;8.20;102304.00;;;;4989608;28;87995;-69
2022/02/12 10:20:54;;;;;;;11.13;2.03;;;8.20;99.90;8.40;102316.00;;;;4971322;28;94184;-72
2022/02/12 10:23:26;;;;;;;9.63;2.40;;;8.40;99.90;8.60;102318.00;;;;4975197;28;87649;-70
2022/02/12 10:26:08;;;;;;;2.97;1.93;;;8.60;99.90;8.40;102302.00;;;;4974257;28;87813;-72
2022/02/12 10:28:40;;;;;;;5.17;1.73;;;8.60;99.90;8.00;102303.00;;;;4976116;28;88110;-69
2022/02/12 10:31:06;;;;;;;2.90;1.93;;;8.30;99.90;7.50;102300.00;;;;4970852;28;89324;-69
2022/02/12 10:33:41;;;;;;;4.80;1.87;;;7.90;99.90;7.30;102303.00;;;;4974405;28;89132;-69
2022/02/12 10:36:07;;;;;;;4.83;2.30;;;7.00;99.90;7.30;102303.00;;;;4970491;28;88073;-72
2022/02/12 10:38:33;;;;;;;2.70;1.80;;;7.50;99.90;7.00;102299.00;;;;4989473;28;90443;-72
2022/02/12 10:41:09;;;;;;;4.87;1.87;;;7.30;99.90;6.80;102288.00;;;;4973308;28;87879;-70
2022/02/12 10:43:36;;;;;;;5.00;1.70;;;7.10;99.90;6.50;102291.00;;;;4982375;27;87972;-70
2022/02/12 10:46:03;;;;;;;3.70;2.13;;;6.80;99.90;6.20;102295.00;;;;4989184;28;109762;-68
2022/02/12 10:48:33;;;;;;;2.90;1.70;;;6.50;99.90;6.20;102288.00;;;;4967308;28;93568;-69
2022/02/12 10:51:00;;;;;;;5.10;2.03;;;6.40;99.90;6.40;102282.00;;;;4990148;28;87814;-69
2022/02/12 10:53:26;;;;;;;5.70;1.50;;;6.50;99.90;6.80;102287.00;;;;4974674;28;87968;-71